createdAt,value
2023-01-21T00:00:15.529Z,18.43
2023-01-21T00:02:42.835Z,16.37
2023-01-21T00:05:10.239Z,17.03
2023-01-21T00:07:36.970Z,19.30
2023-01-21T00:10:03.994Z,15.43
2023-01-21T00:12:30.667Z,18.10
2023-01-21T00:14:57.428Z,17.67
2023-01-21T00:17:24.273Z,16.70
2023-01-21T00:19:51.045Z,18.70
2023-01-21T00:22:17.911Z,18.63
2023-01-21T00:24:44.640Z,17.70
2023-01-21T00:27:11.371Z,18.00
2023-01-21T00:29:38.063Z,19.47
2023-01-21T00:32:04.825Z,18.90
2023-01-21T00:34:31.563Z,14.10
2023-01-21T00:36:58.262Z,19.53
2023-01-21T00:39:25.124Z,17.97
2023-01-21T00:41:52.457Z,15.93
2023-01-21T00:44:19.717Z,16.43
2023-01-21T00:46:46.434Z,17.00
2023-01-21T00:49:13.208Z,17.37
2023-01-21T00:51:39.888Z,16.97
2023-01-21T00:54:06.599Z,17.17
2023-01-21T00:56:33.356Z,15.93
2023-01-21T00:59:00.488Z,13.67
2023-01-21T01:01:29.877Z,16.27
2023-01-21T01:03:56.573Z,16.03
2023-01-21T01:06:24.589Z,14.70
2023-01-21T01:08:52.153Z,14.27
2023-01-21T01:11:21.759Z,15.37
2023-01-21T01:13:48.552Z,9.60
2023-01-21T01:16:16.606Z,11.83
2023-01-21T01:18:43.943Z,10.70
2023-01-21T01:21:13.281Z,13.60
2023-01-21T01:26:11.418Z,13.60
2023-01-21T01:28:38.542Z,14.33
2023-01-21T01:31:07.909Z,13.10
2023-01-21T01:33:35.511Z,11.17
2023-01-21T01:36:04.108Z,11.20
2023-01-21T01:38:31.260Z,14.33
2023-01-21T01:40:58.367Z,14.70
2023-01-21T01:43:27.798Z,12.67
2023-01-21T01:45:54.990Z,14.10
2023-01-21T01:48:31.436Z,14.00
2023-01-21T01:51:01.781Z,13.37
2023-01-21T01:53:37.433Z,12.10
2023-01-21T01:56:04.834Z,9.63
2023-01-21T01:58:32.620Z,12.57
2023-01-21T02:01:00.188Z,11.53
2023-01-21T02:06:10.172Z,11.00
2023-01-21T02:08:37.096Z,12.17
2023-01-21T02:11:11.181Z,13.17
2023-01-21T02:13:38.163Z,11.73
2023-01-21T02:16:27.572Z,11.53
2023-01-21T02:19:30.756Z,10.73
2023-01-21T02:22:23.568Z,11.20
2023-01-21T02:25:36.411Z,12.07
2023-01-21T02:28:33.948Z,10.43
2023-01-21T02:31:06.683Z,12.67
2023-01-21T02:33:42.459Z,12.33
2023-01-21T02:36:29.149Z,13.40
2023-01-21T02:39:17.797Z,13.33
2023-01-21T02:42:02.160Z,12.83
2023-01-21T02:44:36.739Z,13.37
2023-01-21T02:47:25.719Z,15.17
2023-01-21T02:50:03.727Z,12.97
2023-01-21T02:52:30.877Z,13.83
2023-01-21T02:55:00.268Z,13.37
2023-01-21T02:57:41.559Z,14.20
2023-01-21T03:00:22.859Z,13.37
2023-01-21T03:03:11.278Z,13.00
2023-01-21T03:05:41.447Z,12.73
2023-01-21T03:08:34.380Z,13.73
2023-01-21T03:11:14.634Z,13.80
2023-01-21T03:14:01.236Z,13.60
2023-01-21T03:16:42.401Z,13.07
2023-01-21T03:19:15.005Z,12.83
2023-01-21T03:21:42.467Z,12.60
2023-01-21T03:24:14.462Z,14.07
2023-01-21T03:26:42.417Z,14.07
2023-01-21T03:29:18.011Z,13.17
2023-01-21T03:31:48.036Z,12.37
2023-01-21T03:34:17.345Z,12.30
2023-01-21T03:36:49.278Z,13.37
2023-01-21T03:39:42.853Z,13.50
2023-01-21T03:42:10.614Z,12.93
2023-01-21T03:44:42.452Z,13.27
2023-01-21T03:47:25.469Z,14.13
2023-01-21T03:50:25.682Z,13.37
2023-01-21T03:52:52.817Z,11.77
2023-01-21T03:55:19.746Z,12.57
2023-01-21T03:57:46.440Z,13.90
2023-01-21T04:00:13.668Z,13.57
2023-01-21T04:05:07.160Z,12.63
2023-01-21T04:07:33.895Z,12.77
2023-01-21T04:10:00.565Z,14.33
2023-01-21T04:12:27.336Z,14.27
2023-01-21T04:14:54.318Z,15.80
2023-01-21T04:17:21.228Z,14.17
2023-01-21T04:19:47.902Z,12.33
2023-01-21T04:22:14.579Z,12.60
2023-01-21T04:27:06.788Z,12.53
2023-01-21T04:29:33.472Z,14.93
2023-01-21T04:32:00.221Z,14.10
2023-01-21T04:34:26.907Z,15.47
2023-01-21T04:36:53.624Z,13.93
2023-01-21T04:39:20.288Z,13.97
2023-01-21T04:41:47.060Z,14.40
2023-01-21T04:44:14.184Z,15.00
2023-01-21T04:49:07.425Z,15.53
2023-01-21T04:51:34.091Z,15.03
2023-01-21T04:54:00.847Z,13.90
2023-01-21T04:56:27.572Z,14.40
2023-01-21T04:58:54.319Z,14.80
2023-01-21T05:01:21.172Z,16.07
2023-01-21T05:03:47.973Z,13.47
2023-01-21T05:06:14.984Z,14.10
2023-01-21T05:08:42.604Z,13.57
2023-01-21T05:11:09.861Z,14.90
2023-01-21T05:13:39.719Z,14.90
2023-01-21T05:16:10.106Z,14.63
2023-01-21T05:21:08.016Z,15.47
2023-01-21T05:23:34.919Z,14.90
2023-01-21T05:26:02.102Z,15.03
2023-01-21T05:28:28.809Z,14.87
2023-01-21T05:30:59.513Z,16.37
2023-01-21T05:33:33.690Z,15.10
2023-01-21T05:36:02.070Z,15.20
2023-01-21T05:38:29.437Z,14.93
2023-01-21T05:40:58.000Z,15.77
2023-01-21T05:43:24.825Z,13.53
2023-01-21T05:45:52.150Z,16.50
2023-01-21T05:48:19.090Z,14.07
2023-01-21T05:50:46.088Z,16.67
2023-01-21T05:53:16.075Z,14.70
2023-01-21T05:55:43.131Z,14.70
2023-01-21T05:58:12.321Z,14.70
2023-01-21T06:00:39.061Z,14.53
2023-01-21T06:03:05.746Z,16.73
2023-01-21T06:05:37.178Z,14.07
2023-01-21T06:08:04.007Z,13.53
2023-01-21T06:10:30.656Z,14.53
2023-01-21T06:12:57.402Z,15.40
2023-01-21T06:15:28.015Z,12.77
2023-01-21T06:17:55.209Z,14.30
2023-01-21T06:20:22.348Z,14.50
2023-01-21T06:22:49.084Z,15.53
2023-01-21T06:25:15.987Z,15.17
2023-01-21T06:27:42.683Z,15.77
2023-01-21T06:30:10.836Z,15.27
2023-01-21T06:32:38.042Z,14.63
2023-01-21T06:35:05.231Z,16.37
2023-01-21T06:37:32.091Z,14.43
2023-01-21T06:39:58.780Z,14.57
2023-01-21T06:42:28.399Z,13.93
2023-01-21T06:44:55.148Z,16.47
2023-01-21T06:47:21.909Z,15.57
2023-01-21T06:49:48.874Z,14.57
2023-01-21T06:52:22.966Z,15.10
2023-01-21T06:54:51.821Z,15.90
2023-01-21T06:57:22.111Z,14.70
2023-01-21T06:59:51.469Z,14.93
2023-01-21T07:02:24.718Z,15.63
2023-01-21T07:04:51.637Z,15.87
2023-01-21T07:07:18.797Z,14.47
2023-01-21T07:09:45.518Z,14.77
2023-01-21T07:12:15.912Z,14.57
2023-01-21T07:14:43.101Z,16.00
2023-01-21T07:17:21.663Z,14.67
2023-01-21T07:19:48.469Z,15.60
2023-01-21T07:22:15.540Z,15.50
2023-01-21T07:24:42.353Z,15.30
2023-01-21T07:27:11.415Z,15.33
2023-01-21T07:29:38.826Z,17.20
2023-01-21T07:32:05.812Z,16.20
2023-01-21T07:34:32.891Z,16.67
2023-01-21T07:36:59.723Z,15.63
2023-01-21T07:39:26.815Z,16.30
2023-01-21T07:41:53.932Z,15.73
2023-01-21T07:44:20.795Z,13.67
2023-01-21T07:46:47.550Z,16.23
2023-01-21T07:49:17.842Z,14.10
2023-01-21T07:51:48.317Z,15.00
2023-01-21T07:54:15.881Z,15.27
2023-01-21T07:56:45.750Z,13.70
2023-01-21T07:59:13.606Z,14.17
2023-01-21T08:04:09.989Z,12.80
2023-01-21T08:09:07.620Z,14.00
2023-01-21T08:11:34.339Z,14.30
2023-01-21T08:14:01.252Z,13.30
2023-01-21T08:16:27.963Z,13.57
2023-01-21T08:18:54.814Z,13.40
2023-01-21T08:21:21.960Z,14.37
2023-01-21T08:23:51.737Z,14.17
2023-01-21T08:26:19.464Z,14.93
2023-01-21T08:28:57.483Z,14.00
2023-01-21T08:31:24.527Z,13.83
2023-01-21T08:33:54.737Z,13.43
2023-01-21T08:36:22.555Z,14.67
2023-01-21T08:38:59.029Z,15.27
2023-01-21T08:41:25.865Z,14.10
2023-01-21T08:43:53.295Z,14.07
2023-01-21T08:46:20.008Z,12.87
2023-01-21T08:48:46.698Z,13.53
2023-01-21T08:51:13.593Z,12.77
2023-01-21T08:53:42.773Z,11.90
2023-01-21T08:56:14.695Z,12.30
2023-01-21T08:58:42.620Z,12.20
2023-01-21T09:01:11.166Z,12.37
2023-01-21T09:03:38.733Z,13.10
2023-01-21T09:06:11.275Z,12.20
2023-01-21T09:08:38.104Z,12.40
2023-01-21T09:11:07.177Z,13.33
2023-01-21T09:13:38.614Z,11.50
2023-01-21T09:16:16.782Z,11.37
2023-01-21T09:18:47.656Z,11.27
2023-01-21T09:21:14.844Z,12.17
2023-01-21T09:23:42.549Z,10.43
2023-01-21T09:26:17.719Z,12.07
2023-01-21T09:28:47.694Z,12.67
2023-01-21T09:31:16.984Z,11.53
2023-01-21T09:33:45.729Z,12.00
2023-01-21T09:36:19.189Z,11.10
2023-01-21T09:38:47.392Z,12.03
2023-01-21T09:41:49.505Z,11.83
2023-01-21T09:44:43.096Z,14.03
2023-01-21T09:47:29.523Z,12.80
2023-01-21T09:50:05.388Z,12.77
2023-01-21T09:52:43.493Z,11.60
2023-01-21T09:55:20.122Z,12.17
2023-01-21T09:58:05.281Z,11.77
2023-01-21T10:00:42.606Z,11.60
2023-01-21T10:03:09.342Z,12.37
2023-01-21T10:05:38.971Z,11.27
2023-01-21T10:08:27.060Z,12.73
2023-01-21T10:11:00.166Z,11.43
2023-01-21T10:13:42.951Z,11.50
2023-01-21T10:16:28.658Z,13.17
2023-01-21T10:18:58.535Z,12.50
2023-01-21T10:21:41.673Z,12.47
2023-01-21T10:24:15.420Z,13.47
2023-01-21T10:26:45.719Z,12.70
2023-01-21T10:29:21.496Z,12.03
2023-01-21T10:32:04.578Z,13.37
2023-01-21T10:34:37.996Z,12.50
2023-01-21T10:37:44.634Z,14.20
2023-01-21T10:40:19.241Z,12.87
2023-01-21T10:43:31.207Z,13.63
2023-01-21T10:46:15.469Z,13.17
2023-01-21T10:49:03.758Z,11.23
2023-01-21T10:51:42.647Z,10.77
2023-01-21T10:54:24.409Z,11.03
2023-01-21T10:57:04.125Z,9.57
2023-01-21T10:59:33.711Z,10.73
2023-01-21T11:02:10.195Z,8.93
2023-01-21T11:04:39.882Z,10.73
2023-01-21T11:07:12.168Z,8.97
2023-01-21T11:09:42.723Z,9.63
2023-01-21T11:12:13.269Z,10.07
2023-01-21T11:14:40.085Z,9.77
2023-01-21T11:17:07.658Z,9.90
2023-01-21T11:19:34.602Z,8.83
2023-01-21T11:22:05.183Z,8.23
2023-01-21T11:27:07.096Z,9.63
2023-01-21T11:29:41.702Z,8.73
2023-01-21T11:32:18.556Z,8.85
2023-01-21T11:34:53.481Z,9.77
2023-01-21T11:37:24.962Z,9.20
2023-01-21T11:40:03.932Z,8.95
2023-01-21T11:42:30.906Z,8.85
2023-01-21T11:45:30.344Z,10.07
2023-01-21T11:47:59.930Z,7.25
2023-01-21T11:50:35.380Z,9.18
2023-01-21T11:53:11.978Z,9.13
2023-01-21T11:55:42.660Z,8.90
2023-01-21T11:58:38.665Z,8.57
2023-01-21T12:01:22.235Z,8.65
2023-01-21T12:03:53.471Z,10.20
2023-01-21T12:06:24.214Z,10.10
2023-01-21T12:08:55.747Z,8.07
2023-01-21T12:11:26.705Z,7.78
2023-01-21T12:14:11.729Z,7.82
2023-01-21T12:16:42.749Z,7.93
2023-01-21T12:19:31.667Z,7.47
2023-01-21T12:22:33.037Z,7.95
2023-01-21T12:25:06.766Z,7.87
2023-01-21T12:27:42.721Z,7.77
2023-01-21T12:30:28.610Z,7.38
2023-01-21T12:33:01.802Z,6.60
2023-01-21T12:35:41.979Z,7.17
2023-01-21T12:38:18.150Z,7.72
2023-01-21T12:41:05.140Z,7.07
2023-01-21T12:43:43.384Z,6.60
2023-01-21T12:46:24.090Z,6.90
2023-01-21T12:49:02.258Z,7.82
2023-01-21T12:54:36.471Z,7.57
2023-01-21T12:57:25.907Z,6.72
2023-01-21T13:00:04.032Z,6.70
2023-01-21T13:02:45.335Z,5.90
2023-01-21T13:05:23.471Z,5.60
2023-01-21T13:07:59.433Z,6.45
2023-01-21T13:10:39.721Z,6.90
2023-01-21T13:13:20.203Z,6.20
2023-01-21T13:15:52.880Z,6.93
2023-01-21T13:18:34.690Z,6.43
2023-01-21T13:21:18.983Z,7.22
2023-01-21T13:23:50.959Z,6.75
2023-01-21T13:26:18.118Z,6.85
2023-01-21T13:29:12.953Z,6.75
2023-01-21T13:31:42.762Z,6.95
2023-01-21T13:34:30.257Z,7.13
2023-01-21T13:37:07.803Z,6.90
2023-01-21T13:39:42.788Z,7.35
2023-01-21T13:42:45.385Z,7.60
2023-01-21T13:48:25.971Z,6.72
2023-01-21T13:51:27.270Z,6.75
2023-01-21T13:54:03.963Z,7.28
2023-01-21T13:56:33.662Z,7.30
2023-01-21T13:59:24.812Z,7.72
2023-01-21T14:01:59.481Z,6.63
2023-01-21T14:07:22.828Z,7.00
2023-01-21T14:10:19.444Z,6.57
2023-01-21T14:13:11.955Z,6.63
2023-01-21T14:15:41.787Z,5.32
2023-01-21T14:18:42.956Z,6.65
2023-01-21T14:21:30.644Z,5.93
2023-01-21T14:24:17.482Z,5.57
2023-01-21T14:26:57.214Z,6.37
2023-01-21T14:29:35.428Z,6.30
2023-01-21T14:32:06.345Z,6.00
2023-01-21T14:34:43.388Z,6.05
2023-01-21T14:37:19.028Z,5.38
2023-01-21T14:40:16.068Z,5.60
2023-01-21T14:42:51.459Z,6.10
2023-01-21T14:45:25.868Z,5.87
2023-01-21T14:47:58.291Z,5.00
2023-01-21T14:50:42.952Z,6.25
2023-01-21T14:53:23.709Z,6.15
2023-01-21T14:59:03.197Z,4.15
2023-01-21T15:01:42.816Z,5.77
2023-01-21T15:07:19.552Z,4.82
2023-01-21T15:09:59.160Z,5.78
2023-01-21T15:12:31.558Z,6.07
2023-01-21T15:15:05.118Z,5.93
2023-01-21T15:17:42.830Z,6.30
2023-01-21T15:20:44.557Z,5.78
2023-01-21T15:23:21.428Z,6.70
2023-01-21T15:26:11.839Z,7.20
2023-01-21T15:31:11.350Z,6.65
2023-01-21T15:33:43.187Z,7.15
2023-01-21T15:36:24.456Z,6.97
2023-01-21T15:38:55.597Z,6.20
2023-01-21T15:41:26.236Z,6.88
2023-01-21T15:44:19.268Z,6.95
2023-01-21T15:46:54.936Z,6.07
2023-01-21T15:49:42.844Z,6.38
2023-01-21T15:55:22.716Z,6.50
2023-01-21T15:58:15.334Z,7.23
2023-01-21T16:00:41.844Z,7.70
2023-01-21T16:03:17.879Z,6.68
2023-01-21T16:06:06.334Z,6.88
2023-01-21T16:08:42.822Z,6.40
2023-01-21T16:11:26.251Z,7.63
2023-01-21T16:14:14.128Z,7.03
2023-01-21T16:16:41.852Z,7.60
2023-01-21T16:19:16.032Z,7.50
2023-01-21T16:21:46.969Z,6.97
2023-01-21T16:24:20.048Z,7.87
2023-01-21T16:26:46.813Z,6.97
2023-01-21T16:29:17.638Z,6.00
2023-01-21T16:32:04.360Z,6.35
2023-01-21T16:34:31.305Z,6.60
2023-01-21T16:37:10.670Z,7.10
2023-01-21T16:39:43.436Z,7.82
2023-01-21T16:42:32.583Z,12.20
2023-01-21T16:45:00.004Z,22.45
2023-01-21T16:47:35.943Z,14.63
2023-01-21T16:50:05.812Z,8.65
2023-01-21T16:52:33.796Z,8.13
2023-01-21T16:55:19.547Z,7.20
2023-01-21T16:57:51.377Z,7.78
2023-01-21T17:00:30.347Z,6.57
2023-01-21T17:03:00.566Z,6.80
2023-01-21T17:05:34.697Z,8.20
2023-01-21T17:08:11.178Z,7.33
2023-01-21T17:10:42.851Z,6.82
2023-01-21T17:13:16.233Z,6.90
2023-01-21T17:15:58.463Z,7.00
2023-01-21T17:18:39.152Z,7.15
2023-01-21T17:21:10.658Z,6.90
2023-01-21T17:23:43.313Z,7.45
2023-01-21T17:26:24.718Z,6.95
2023-01-21T17:28:59.987Z,6.85
2023-01-21T17:34:21.386Z,7.20
2023-01-21T17:36:50.948Z,7.23
2023-01-21T17:39:43.149Z,7.40
2023-01-21T17:42:18.478Z,8.17
2023-01-21T17:44:55.023Z,9.77
2023-01-21T17:47:25.420Z,8.40
2023-01-21T17:50:13.178Z,8.57
2023-01-21T17:52:40.032Z,9.05
2023-01-21T17:55:39.451Z,9.43
2023-01-21T17:58:32.128Z,7.90
2023-01-21T18:01:02.829Z,7.93
2023-01-21T18:03:33.453Z,8.17
2023-01-21T18:06:01.274Z,7.57
2023-01-21T18:08:30.949Z,7.63
2023-01-21T18:10:58.293Z,7.37
2023-01-21T18:13:25.114Z,8.95
2023-01-21T18:15:54.465Z,8.50
2023-01-21T18:18:25.562Z,5.32
2023-01-21T18:20:52.438Z,7.93
2023-01-21T18:23:20.303Z,7.93
2023-01-21T18:25:49.165Z,7.55
2023-01-21T18:28:24.734Z,9.33
2023-01-21T18:30:54.207Z,9.77
2023-01-21T18:33:21.451Z,9.67
2023-01-21T18:35:49.850Z,8.95
2023-01-21T18:38:27.071Z,11.15
2023-01-21T18:40:55.966Z,9.77
2023-01-21T18:43:23.742Z,9.03
2023-01-21T18:45:52.656Z,9.63
2023-01-21T18:48:27.620Z,9.97
2023-01-21T18:50:54.694Z,9.85
2023-01-21T18:53:21.572Z,8.73
2023-01-21T18:55:51.132Z,10.20
2023-01-21T18:58:18.000Z,10.30
2023-01-21T19:00:44.735Z,11.15
2023-01-21T19:03:14.071Z,10.00
2023-01-21T19:05:42.863Z,9.10
2023-01-21T19:08:16.717Z,9.47
2023-01-21T19:10:43.684Z,9.73
2023-01-21T19:13:11.675Z,8.97
2023-01-21T19:15:39.304Z,9.70
2023-01-21T19:18:16.651Z,10.88
2023-01-21T19:20:46.140Z,9.53
2023-01-21T19:23:17.940Z,9.30
2023-01-21T19:25:55.567Z,9.07
2023-01-21T19:28:23.703Z,9.73
2023-01-21T19:30:58.077Z,9.43
2023-01-21T19:33:28.527Z,10.40
2023-01-21T19:36:01.993Z,8.83
2023-01-21T19:38:28.771Z,9.73
2023-01-21T19:40:55.961Z,9.97
2023-01-21T19:43:22.857Z,11.30
2023-01-21T19:45:54.369Z,10.23
2023-01-21T19:48:22.178Z,9.63
2023-01-21T19:50:49.697Z,11.37
2023-01-21T19:53:18.551Z,10.77
2023-01-21T19:55:46.706Z,10.47
2023-01-21T19:58:20.012Z,11.00
2023-01-21T20:00:49.368Z,11.47
2023-01-21T20:03:18.897Z,7.47
2023-01-21T20:05:49.944Z,8.17
2023-01-21T20:08:20.575Z,9.67
2023-01-21T20:10:47.761Z,8.93
2023-01-21T20:13:15.812Z,10.97
2023-01-21T20:15:44.889Z,10.87
2023-01-21T20:18:19.280Z,9.10
2023-01-21T20:20:45.938Z,9.77
2023-01-21T20:23:15.959Z,8.80
2023-01-21T20:25:44.197Z,9.07
2023-01-21T20:28:20.954Z,11.50
2023-01-21T20:30:53.938Z,10.00
2023-01-21T20:33:23.119Z,10.40
2023-01-21T20:35:52.988Z,10.80
2023-01-21T20:38:37.330Z,11.13
2023-01-21T20:41:05.754Z,10.33
2023-01-21T20:43:35.456Z,12.23
2023-01-21T20:46:05.579Z,11.40
2023-01-21T20:48:38.978Z,10.73
2023-01-21T20:51:06.202Z,11.40
2023-01-21T20:53:33.304Z,11.93
2023-01-21T20:56:15.533Z,11.40
2023-01-21T20:58:45.098Z,10.80
2023-01-21T21:03:59.145Z,11.33
2023-01-21T21:06:29.475Z,11.83
2023-01-21T21:08:56.271Z,12.77
2023-01-21T21:11:23.221Z,10.80
2023-01-21T21:13:52.573Z,12.17
2023-01-21T21:16:22.192Z,11.00
2023-01-21T21:18:49.471Z,11.30
2023-01-21T21:21:18.018Z,12.80
2023-01-21T21:23:46.807Z,11.97
2023-01-21T21:26:22.376Z,11.47
2023-01-21T21:28:49.809Z,10.57
2023-01-21T21:31:18.056Z,11.30
2023-01-21T21:33:45.067Z,12.07
2023-01-21T21:36:28.234Z,12.67
2023-01-21T21:39:01.186Z,11.37
2023-01-21T21:41:47.402Z,12.63
2023-01-21T21:44:14.126Z,11.80
2023-01-21T21:46:43.214Z,12.63
2023-01-21T21:49:10.186Z,13.47
2023-01-21T21:51:38.198Z,13.43
2023-01-21T21:54:07.959Z,13.10
2023-01-21T21:56:36.044Z,11.83
2023-01-21T21:59:03.316Z,11.50
2023-01-21T22:01:35.114Z,12.73
2023-01-21T22:04:03.073Z,12.30
2023-01-21T22:06:30.338Z,12.05
2023-01-21T22:08:58.926Z,10.90
2023-01-21T22:11:26.789Z,11.70
2023-01-21T22:13:58.369Z,10.32
2023-01-21T22:16:27.721Z,11.27
2023-01-21T22:18:56.752Z,12.10
2023-01-21T22:21:26.948Z,10.97
2023-01-21T22:23:54.726Z,11.48
2023-01-21T22:26:24.191Z,10.65
2023-01-21T22:28:53.977Z,12.93
2023-01-21T22:31:26.346Z,12.07
2023-01-21T22:33:53.801Z,12.40
2023-01-21T22:36:22.728Z,11.87
2023-01-21T22:38:50.120Z,10.83
2023-01-21T22:41:20.191Z,11.97
2023-01-21T22:43:48.663Z,12.53
2023-01-21T22:46:27.366Z,12.53
2023-01-21T22:48:54.843Z,12.07
2023-01-21T22:51:23.376Z,11.60
2023-01-21T22:53:50.993Z,12.60
2023-01-21T22:56:19.729Z,12.00
2023-01-21T22:58:46.643Z,12.80
2023-01-21T23:01:31.498Z,12.17
2023-01-21T23:03:59.834Z,12.27
2023-01-21T23:06:26.887Z,11.87
2023-01-21T23:08:53.661Z,11.70
2023-01-21T23:11:21.451Z,13.10
2023-01-21T23:13:49.882Z,11.60
2023-01-21T23:16:21.289Z,13.17
2023-01-21T23:18:48.642Z,12.03
2023-01-21T23:21:26.100Z,12.77
2023-01-21T23:23:59.794Z,14.10
2023-01-21T23:26:26.614Z,12.20
2023-01-21T23:28:57.951Z,11.73
2023-01-21T23:31:25.187Z,12.20
2023-01-21T23:33:53.552Z,12.33
2023-01-21T23:36:23.161Z,11.80
2023-01-21T23:38:49.939Z,12.90
2023-01-21T23:41:17.369Z,11.77
2023-01-21T23:43:44.560Z,10.85
2023-01-21T23:46:16.769Z,11.82
2023-01-21T23:48:43.884Z,13.13
2023-01-21T23:51:14.378Z,11.73
2023-01-21T23:56:13.602Z,13.18
2023-01-21T23:58:40.713Z,11.68
